createdAt,value
2022-10-20T00:01:17.086Z,2.75
2022-10-20T00:03:45.208Z,3.30
2022-10-20T00:06:19.608Z,2.83
2022-10-20T00:08:47.323Z,2.67
2022-10-20T00:11:17.140Z,2.55
2022-10-20T00:13:46.838Z,2.30
2022-10-20T00:16:14.603Z,2.60
2022-10-20T00:18:42.078Z,2.33
2022-10-20T00:21:13.089Z,2.17
2022-10-20T00:23:40.740Z,2.40
2022-10-20T00:26:14.048Z,1.92
2022-10-20T00:28:41.330Z,2.80
2022-10-20T00:31:09.093Z,2.35
2022-10-20T00:33:36.628Z,2.40
2022-10-20T00:36:05.880Z,2.10
2022-10-20T00:38:34.468Z,2.22
2022-10-20T00:41:04.729Z,2.20
2022-10-20T00:43:49.008Z,2.72
2022-10-20T00:46:22.758Z,2.00
2022-10-20T00:48:55.468Z,2.25
2022-10-20T00:51:26.769Z,2.20
2022-10-20T00:54:00.309Z,2.40
2022-10-20T00:58:55.169Z,4.03
2022-10-20T01:01:22.465Z,2.20
2022-10-20T01:03:51.495Z,2.20
2022-10-20T01:06:22.441Z,2.10
2022-10-20T01:08:53.168Z,2.30
2022-10-20T01:11:51.210Z,2.22
2022-10-20T01:14:39.706Z,2.20
2022-10-20T01:17:37.363Z,2.08
2022-10-20T01:20:29.308Z,2.30
2022-10-20T01:23:17.616Z,2.58
2022-10-20T01:26:03.599Z,1.90
2022-10-20T01:28:37.059Z,2.00
2022-10-20T01:31:15.407Z,2.17
2022-10-20T01:33:48.669Z,2.20
2022-10-20T01:36:29.048Z,2.40
2022-10-20T01:39:04.959Z,3.00
2022-10-20T01:41:39.558Z,2.25
2022-10-20T01:44:11.133Z,2.13
2022-10-20T01:46:40.978Z,2.08
2022-10-20T01:49:08.950Z,2.30
2022-10-20T01:51:36.239Z,1.80
2022-10-20T01:54:03.796Z,2.10
2022-10-20T01:56:40.408Z,2.00
2022-10-20T01:59:40.096Z,2.33
2022-10-20T02:02:35.289Z,2.65
2022-10-20T02:05:28.848Z,2.40
2022-10-20T02:08:20.069Z,2.30
2022-10-20T02:10:50.608Z,2.25
2022-10-20T02:13:20.926Z,2.20
2022-10-20T02:15:56.126Z,2.28
2022-10-20T02:18:31.153Z,2.55
2022-10-20T02:21:01.350Z,2.50
2022-10-20T02:23:35.114Z,2.08
2022-10-20T02:26:12.450Z,2.63
2022-10-20T02:28:43.567Z,2.53
2022-10-20T02:31:11.582Z,2.70
2022-10-20T02:33:39.741Z,2.42
2022-10-20T02:36:12.389Z,2.10
2022-10-20T02:38:39.628Z,2.25
2022-10-20T02:41:06.849Z,2.47
2022-10-20T02:43:34.196Z,2.90
2022-10-20T02:46:01.358Z,2.20
2022-10-20T02:48:28.738Z,2.20
2022-10-20T02:50:55.948Z,2.70
2022-10-20T02:53:23.198Z,2.58
2022-10-20T02:55:50.471Z,2.67
2022-10-20T02:58:17.751Z,2.63
2022-10-20T03:00:45.019Z,2.72
2022-10-20T03:03:12.310Z,2.20
2022-10-20T03:05:41.948Z,2.17
2022-10-20T03:08:09.168Z,2.25
2022-10-20T03:10:37.726Z,2.50
2022-10-20T03:13:06.018Z,2.60
2022-10-20T03:15:33.718Z,2.38
2022-10-20T03:18:01.289Z,2.75
2022-10-20T03:20:28.526Z,2.80
2022-10-20T03:22:55.739Z,2.33
2022-10-20T03:25:23.046Z,2.65
2022-10-20T03:27:52.318Z,2.72
2022-10-20T03:30:19.628Z,2.40
2022-10-20T03:32:46.898Z,2.92
2022-10-20T03:35:14.149Z,2.50
2022-10-20T03:37:41.449Z,2.65
2022-10-20T03:40:09.308Z,4.32
2022-10-20T03:42:36.825Z,2.30
2022-10-20T03:45:04.518Z,2.38
2022-10-20T03:47:31.829Z,2.10
2022-10-20T03:49:59.071Z,2.47
2022-10-20T03:52:26.328Z,2.20
2022-10-20T03:54:53.549Z,3.35
2022-10-20T03:57:20.979Z,1.98
2022-10-20T03:59:48.448Z,1.98
2022-10-20T04:02:41.601Z,2.10
2022-10-20T04:05:09.519Z,2.35
2022-10-20T04:07:36.729Z,1.88
2022-10-20T04:10:04.700Z,2.65
2022-10-20T04:12:31.860Z,2.35
2022-10-20T04:14:59.099Z,2.50
2022-10-20T04:17:26.371Z,2.45
2022-10-20T04:19:53.804Z,2.10
2022-10-20T04:22:21.145Z,2.95
2022-10-20T04:24:48.403Z,2.05
2022-10-20T04:27:15.769Z,2.20
2022-10-20T04:29:43.114Z,2.60
2022-10-20T04:32:10.485Z,2.83
2022-10-20T04:34:37.784Z,3.13
2022-10-20T04:37:05.234Z,2.10
2022-10-20T04:39:32.771Z,2.30
2022-10-20T04:42:01.073Z,2.25
2022-10-20T04:44:28.325Z,2.40
2022-10-20T04:46:55.754Z,2.40
2022-10-20T04:49:23.284Z,2.53
2022-10-20T04:51:50.584Z,2.45
2022-10-20T04:54:17.844Z,2.10
2022-10-20T04:56:45.176Z,2.30
2022-10-20T04:59:13.691Z,2.47
2022-10-20T05:01:41.394Z,2.83
2022-10-20T05:04:09.905Z,1.95
2022-10-20T05:06:37.488Z,2.53
2022-10-20T05:09:08.126Z,2.03
2022-10-20T05:11:37.094Z,2.00
2022-10-20T05:14:04.353Z,2.33
2022-10-20T05:16:32.078Z,2.05
2022-10-20T05:18:59.443Z,2.10
2022-10-20T05:21:30.255Z,2.30
2022-10-20T05:24:03.676Z,2.38
2022-10-20T05:26:35.996Z,2.10
2022-10-20T05:29:09.024Z,2.28
2022-10-20T05:31:39.263Z,1.73
2022-10-20T05:34:06.883Z,2.17
2022-10-20T05:36:34.614Z,2.17
2022-10-20T05:39:02.204Z,2.30
2022-10-20T05:41:33.504Z,2.35
2022-10-20T05:44:05.764Z,1.80
2022-10-20T05:46:43.884Z,2.20
2022-10-20T05:49:16.899Z,2.47
2022-10-20T05:51:45.514Z,2.45
2022-10-20T05:54:14.279Z,1.95
2022-10-20T05:56:42.077Z,2.63
2022-10-20T05:59:10.826Z,2.10
2022-10-20T06:01:50.755Z,1.80
2022-10-20T06:04:28.264Z,2.00
2022-10-20T06:06:56.453Z,1.70
2022-10-20T06:09:24.697Z,1.92
2022-10-20T06:11:52.914Z,1.55
2022-10-20T06:14:22.655Z,1.77
2022-10-20T06:16:53.565Z,1.63
2022-10-20T06:19:21.423Z,1.55
2022-10-20T06:21:49.658Z,1.60
2022-10-20T06:24:17.965Z,1.70
2022-10-20T06:26:45.758Z,1.70
2022-10-20T06:29:16.101Z,1.73
2022-10-20T06:31:45.846Z,2.40
2022-10-20T06:34:21.976Z,1.65
2022-10-20T06:36:49.883Z,2.00
2022-10-20T06:39:20.145Z,1.80
2022-10-20T06:41:52.414Z,2.08
2022-10-20T06:44:21.725Z,1.70
2022-10-20T06:46:49.517Z,1.60
2022-10-20T06:49:16.833Z,1.85
2022-10-20T06:51:44.169Z,2.03
2022-10-20T06:54:11.864Z,2.40
2022-10-20T06:56:40.415Z,2.88
2022-10-20T06:59:08.204Z,3.20
2022-10-20T07:01:37.998Z,3.45
2022-10-20T07:04:16.637Z,2.80
2022-10-20T07:06:45.714Z,3.40
2022-10-20T07:09:16.134Z,3.47
2022-10-20T07:11:43.814Z,2.97
2022-10-20T07:14:13.998Z,3.38
2022-10-20T07:16:41.676Z,4.32
2022-10-20T07:19:09.126Z,5.35
2022-10-20T07:21:39.129Z,5.07
2022-10-20T07:24:10.124Z,11.52
2022-10-20T07:26:39.514Z,34.20
2022-10-20T07:29:07.383Z,28.15
2022-10-20T07:31:40.604Z,14.55
2022-10-20T07:34:27.295Z,45.10
2022-10-20T07:36:56.826Z,12.02
2022-10-20T07:39:24.404Z,7.15
2022-10-20T07:41:51.842Z,7.32
2022-10-20T07:44:19.626Z,33.53
2022-10-20T07:46:46.996Z,94.43
2022-10-20T07:49:43.038Z,15.82
2022-10-20T07:52:01.691Z,17.50
2022-10-20T07:54:28.994Z,13.10
2022-10-20T07:56:56.316Z,98.57
2022-10-20T07:59:24.625Z,34.38
2022-10-20T08:01:54.786Z,22.20
2022-10-20T08:04:26.145Z,7.47
2022-10-20T08:06:53.414Z,19.02
2022-10-20T08:09:20.784Z,11.10
2022-10-20T08:11:51.426Z,8.27
2022-10-20T08:14:21.774Z,6.93
2022-10-20T08:16:58.884Z,6.13
2022-10-20T08:19:33.693Z,6.90
2022-10-20T08:22:01.063Z,4.93
2022-10-20T08:24:28.424Z,30.73
2022-10-20T08:26:55.765Z,10.90
2022-10-20T08:29:23.054Z,10.90
2022-10-20T08:31:50.364Z,11.48
2022-10-20T08:34:17.624Z,25.05
2022-10-20T08:36:44.985Z,58.13
2022-10-20T08:39:12.405Z,37.63
2022-10-20T08:44:34.777Z,40.50
2022-10-20T08:47:05.299Z,13.70
2022-10-20T08:49:35.148Z,10.55
2022-10-20T08:52:02.974Z,20.65
2022-10-20T08:54:34.077Z,19.20
2022-10-20T08:57:01.529Z,44.30
2022-10-20T08:59:34.068Z,62.55
2022-10-20T09:02:02.933Z,74.82
2022-10-20T09:04:34.975Z,42.00
2022-10-20T09:07:10.530Z,17.95
2022-10-20T09:09:38.004Z,17.80
2022-10-20T09:12:07.975Z,23.83
2022-10-20T09:14:37.664Z,9.85
2022-10-20T09:17:09.148Z,9.48
2022-10-20T09:19:39.095Z,9.18
2022-10-20T09:22:07.862Z,7.60
2022-10-20T09:24:36.345Z,15.02
2022-10-20T09:27:25.144Z,11.75
2022-10-20T09:29:52.494Z,5.45
2022-10-20T09:32:51.146Z,12.10
2022-10-20T09:35:30.297Z,51.05
2022-10-20T09:38:02.486Z,58.17
2022-10-20T09:40:29.955Z,49.80
2022-10-20T09:43:15.164Z,30.65
2022-10-20T09:46:00.598Z,43.33
2022-10-20T09:48:31.395Z,40.15
2022-10-20T09:50:59.637Z,59.80
2022-10-20T09:53:41.315Z,22.02
2022-10-20T09:56:09.475Z,6.13
2022-10-20T09:58:39.266Z,68.88
2022-10-20T10:01:14.234Z,8.88
2022-10-20T10:03:45.196Z,5.05
2022-10-20T10:06:41.224Z,11.25
2022-10-20T10:09:38.044Z,5.10
2022-10-20T10:12:12.806Z,4.47
2022-10-20T10:14:52.744Z,5.57
2022-10-20T10:17:50.081Z,3.70
2022-10-20T10:20:17.289Z,5.22
2022-10-20T10:22:44.950Z,4.22
2022-10-20T10:25:27.350Z,3.28
2022-10-20T10:28:08.978Z,4.45
2022-10-20T10:30:38.538Z,3.85
2022-10-20T10:33:27.289Z,58.15
2022-10-20T10:35:54.719Z,16.60
2022-10-20T10:38:22.569Z,104.55
2022-10-20T10:41:08.389Z,9.10
2022-10-20T10:44:17.439Z,20.65
2022-10-20T10:49:54.362Z,10.40
2022-10-20T10:52:48.999Z,6.07
2022-10-20T10:55:47.150Z,13.02
2022-10-20T10:58:27.930Z,13.77
2022-10-20T11:01:39.729Z,12.52
2022-10-20T11:04:25.791Z,14.00
2022-10-20T11:07:02.309Z,6.13
2022-10-20T11:09:49.958Z,20.15
2022-10-20T11:12:23.048Z,13.93
2022-10-20T11:15:08.990Z,32.28
2022-10-20T11:17:44.997Z,18.58
2022-10-20T11:20:12.270Z,13.85
2022-10-20T11:22:54.508Z,20.27
2022-10-20T11:25:57.509Z,7.80
2022-10-20T11:28:44.279Z,28.00
2022-10-20T11:31:36.998Z,59.92
2022-10-20T11:34:21.079Z,42.25
2022-10-20T11:36:53.381Z,35.67
2022-10-20T11:39:44.077Z,13.70
2022-10-20T11:42:38.092Z,23.30
2022-10-20T11:45:24.718Z,16.65
2022-10-20T11:48:16.818Z,19.58
2022-10-20T11:50:51.220Z,16.73
2022-10-20T11:54:03.068Z,25.27
2022-10-20T11:56:38.988Z,19.13
2022-10-20T11:59:11.988Z,8.15
2022-10-20T12:02:13.440Z,6.78
2022-10-20T12:05:10.042Z,4.97
2022-10-20T12:08:17.401Z,9.27
2022-10-20T12:11:21.280Z,6.60
2022-10-20T12:14:15.849Z,5.35
2022-10-20T12:16:52.254Z,4.55
2022-10-20T12:19:24.736Z,9.52
2022-10-20T12:22:53.907Z,70.35
2022-10-20T12:26:02.109Z,390.88
2022-10-20T12:28:29.428Z,731.03
2022-10-20T12:31:01.912Z,448.27
2022-10-20T12:33:51.008Z,266.92
2022-10-20T12:36:18.128Z,134.05
2022-10-20T12:38:49.238Z,138.75
2022-10-20T12:41:34.298Z,128.13
2022-10-20T12:44:17.578Z,144.05
2022-10-20T12:46:57.218Z,28.05
2022-10-20T12:49:53.198Z,38.42
2022-10-20T12:52:28.139Z,67.95
2022-10-20T12:55:18.832Z,36.92
2022-10-20T12:57:47.247Z,29.55
2022-10-20T13:00:20.419Z,34.88
2022-10-20T13:02:52.626Z,75.82
2022-10-20T13:05:19.779Z,85.05
2022-10-20T13:07:47.002Z,188.73
2022-10-20T13:10:38.718Z,16.92
2022-10-20T13:13:05.899Z,5.68
2022-10-20T13:15:36.316Z,4.45
2022-10-20T13:18:12.964Z,3.75
2022-10-20T13:21:01.818Z,3.90
2022-10-20T13:23:49.640Z,5.25
2022-10-20T13:26:39.310Z,7.80
2022-10-20T13:29:27.120Z,4.30
2022-10-20T13:32:16.069Z,12.82
2022-10-20T13:35:06.345Z,8.13
2022-10-20T13:38:00.680Z,10.77
2022-10-20T13:40:37.169Z,8.40
2022-10-20T13:43:29.395Z,4.18
2022-10-20T13:46:20.481Z,6.07
2022-10-20T13:48:50.356Z,4.30
2022-10-20T13:51:29.409Z,7.03
2022-10-20T13:54:00.917Z,11.30
2022-10-20T13:56:42.606Z,8.00
2022-10-20T14:02:03.926Z,22.00
2022-10-20T14:04:33.519Z,38.17
2022-10-20T14:07:13.434Z,19.35
2022-10-20T14:09:45.454Z,32.63
2022-10-20T14:12:23.748Z,10.90
2022-10-20T14:14:51.061Z,19.60
2022-10-20T14:17:20.949Z,11.85
2022-10-20T14:19:48.288Z,31.33
2022-10-20T14:22:24.310Z,19.70
2022-10-20T14:24:57.108Z,8.65
2022-10-20T14:27:29.067Z,10.05
2022-10-20T14:29:56.988Z,10.35
2022-10-20T14:35:49.679Z,19.20
2022-10-20T14:38:25.818Z,55.58
2022-10-20T14:40:55.640Z,18.60
2022-10-20T14:43:31.458Z,7.90
2022-10-20T14:46:01.179Z,27.40
2022-10-20T14:48:38.148Z,62.30
2022-10-20T14:51:45.210Z,59.03
2022-10-20T14:54:21.562Z,32.33
2022-10-20T14:56:53.288Z,29.55
2022-10-20T14:59:23.518Z,42.55
2022-10-20T15:04:54.260Z,28.60
2022-10-20T15:07:29.219Z,38.58
2022-10-20T15:10:13.918Z,41.70
2022-10-20T15:12:44.492Z,31.42
2022-10-20T15:15:11.671Z,27.90
2022-10-20T15:17:51.348Z,55.80
2022-10-20T15:20:30.846Z,56.42
2022-10-20T15:23:00.148Z,65.57
2022-10-20T15:25:29.929Z,30.70
2022-10-20T15:27:58.249Z,56.92
2022-10-20T15:30:26.788Z,35.58
2022-10-20T15:32:55.068Z,63.65
2022-10-20T15:35:24.417Z,72.80
2022-10-20T15:37:53.611Z,62.08
2022-10-20T15:40:21.758Z,50.92
2022-10-20T15:42:49.519Z,19.58
2022-10-20T15:45:25.419Z,24.60
2022-10-20T15:47:52.671Z,7.70
2022-10-20T15:50:21.800Z,7.40
2022-10-20T15:52:51.450Z,6.15
2022-10-20T15:55:37.558Z,6.28
2022-10-20T15:58:05.068Z,7.72
2022-10-20T16:00:32.237Z,8.05
2022-10-20T16:02:59.489Z,19.45
2022-10-20T16:05:27.404Z,19.65
2022-10-20T16:07:55.989Z,17.83
2022-10-20T16:10:26.299Z,11.90
2022-10-20T16:12:53.488Z,12.43
2022-10-20T16:15:20.773Z,12.43
2022-10-20T16:20:29.429Z,17.42
2022-10-20T16:23:02.795Z,7.75
2022-10-20T16:25:39.090Z,10.05
2022-10-20T16:28:06.501Z,16.75
2022-10-20T16:30:33.809Z,19.92
2022-10-20T16:33:01.055Z,21.58
2022-10-20T16:35:28.280Z,21.95
2022-10-20T16:37:55.620Z,18.50
2022-10-20T16:40:22.839Z,12.10
2022-10-20T16:42:50.083Z,6.05
2022-10-20T16:45:17.405Z,4.78
2022-10-20T16:50:25.711Z,6.90
2022-10-20T16:52:52.909Z,7.82
2022-10-20T16:55:20.139Z,7.78
2022-10-20T16:57:47.400Z,6.60
2022-10-20T17:00:15.423Z,5.70
2022-10-20T17:02:44.209Z,5.45
2022-10-20T17:05:11.490Z,4.60
2022-10-20T17:07:39.017Z,5.30
2022-10-20T17:10:08.579Z,5.28
2022-10-20T17:12:35.840Z,4.28
2022-10-20T17:15:03.071Z,3.50
2022-10-20T17:17:30.220Z,4.35
2022-10-20T17:19:57.600Z,3.13
2022-10-20T17:27:47.459Z,3.85
2022-10-20T17:30:15.054Z,3.92
2022-10-20T17:32:43.250Z,4.07
2022-10-20T17:35:12.459Z,3.60
2022-10-20T17:37:39.760Z,4.00
2022-10-20T17:40:07.377Z,3.70
2022-10-20T17:42:34.932Z,4.22
2022-10-20T17:45:02.350Z,3.85
2022-10-20T17:47:29.547Z,4.95
2022-10-20T17:49:56.766Z,4.00
2022-10-20T17:52:23.991Z,4.10
2022-10-20T17:54:51.207Z,3.60
2022-10-20T17:57:18.430Z,4.30
2022-10-20T17:59:52.890Z,3.85
2022-10-20T18:02:24.240Z,4.20
2022-10-20T18:04:52.348Z,3.60
2022-10-20T18:07:20.019Z,4.07
2022-10-20T18:09:47.651Z,3.05
2022-10-20T18:12:15.220Z,3.72
2022-10-20T18:14:43.000Z,3.38
2022-10-20T18:17:10.780Z,3.08
2022-10-20T18:19:38.050Z,3.05
2022-10-20T18:22:05.280Z,3.60
2022-10-20T18:24:33.149Z,3.22
2022-10-20T18:27:00.426Z,3.33
2022-10-20T18:29:27.600Z,3.47
2022-10-20T18:31:54.920Z,3.33
2022-10-20T18:34:22.322Z,3.72
2022-10-20T18:36:50.914Z,3.42
2022-10-20T18:39:18.409Z,3.35
2022-10-20T18:41:46.570Z,3.50
2022-10-20T18:44:19.137Z,2.83
2022-10-20T18:46:47.862Z,3.30
2022-10-20T18:49:18.949Z,2.90
2022-10-20T18:51:47.798Z,3.80
2022-10-20T18:54:15.900Z,3.70
2022-10-20T18:56:43.280Z,2.80
2022-10-20T18:59:14.101Z,3.25
2022-10-20T19:01:42.711Z,3.90
2022-10-20T19:04:12.052Z,3.38
2022-10-20T19:06:42.432Z,2.85
2022-10-20T19:09:17.567Z,2.88
2022-10-20T19:11:46.969Z,3.17
2022-10-20T19:14:17.295Z,2.67
2022-10-20T19:16:50.231Z,3.15
2022-10-20T19:19:18.901Z,2.95
2022-10-20T19:21:47.009Z,3.58
2022-10-20T19:24:23.693Z,2.90
2022-10-20T19:29:46.751Z,3.13
2022-10-20T19:35:15.699Z,2.60
2022-10-20T19:37:42.910Z,2.80
2022-10-20T19:40:10.780Z,3.03
2022-10-20T19:42:38.723Z,2.85
2022-10-20T19:45:06.570Z,3.00
2022-10-20T19:47:33.760Z,3.17
2022-10-20T19:50:01.030Z,2.92
2022-10-20T19:52:28.205Z,2.50
2022-10-20T19:54:55.519Z,3.00
2022-10-20T19:57:22.731Z,2.90
2022-10-20T19:59:50.245Z,3.00
2022-10-20T20:02:17.586Z,3.15
2022-10-20T20:04:44.900Z,3.28
2022-10-20T20:07:12.136Z,3.13
2022-10-20T20:09:39.369Z,3.10
2022-10-20T20:12:06.670Z,3.10
2022-10-20T20:14:33.879Z,3.47
2022-10-20T20:17:01.061Z,3.53
2022-10-20T20:19:28.419Z,2.97
2022-10-20T20:21:55.561Z,3.05
2022-10-20T20:24:22.813Z,3.13
2022-10-20T20:26:50.459Z,3.38
2022-10-20T20:29:17.710Z,3.78
2022-10-20T20:31:45.055Z,3.65
2022-10-20T20:34:12.630Z,3.22
2022-10-20T20:36:39.830Z,3.45
2022-10-20T20:39:07.560Z,4.25
2022-10-20T20:41:34.813Z,4.13
2022-10-20T20:44:06.910Z,3.97
2022-10-20T20:49:04.002Z,3.90
2022-10-20T20:51:34.001Z,3.83
2022-10-20T20:54:02.927Z,4.40
2022-10-20T20:56:30.390Z,4.15
2022-10-20T20:58:57.591Z,4.22
2022-10-20T21:01:31.811Z,4.30
2022-10-20T21:04:06.199Z,3.92
2022-10-20T21:06:49.446Z,3.80
2022-10-20T21:09:20.968Z,4.22
2022-10-20T21:11:49.289Z,4.47
2022-10-20T21:14:16.483Z,4.70
2022-10-20T21:16:43.754Z,4.47
2022-10-20T21:19:11.479Z,4.55
2022-10-20T21:21:44.698Z,4.10
2022-10-20T21:24:12.875Z,4.65
2022-10-20T21:26:40.514Z,4.35
2022-10-20T21:29:07.793Z,4.65
2022-10-20T21:31:35.603Z,4.32
2022-10-20T21:34:04.963Z,6.18
2022-10-20T21:36:35.510Z,4.72
2022-10-20T21:39:05.409Z,4.55
2022-10-20T21:41:34.650Z,4.43
2022-10-20T21:44:03.861Z,4.78
2022-10-20T21:46:33.699Z,4.47
2022-10-20T21:49:06.789Z,4.50
2022-10-20T21:51:39.489Z,4.20
2022-10-20T21:54:08.878Z,4.20
2022-10-20T21:56:37.421Z,4.20
2022-10-20T21:59:05.970Z,4.32
2022-10-20T22:01:33.768Z,4.53
2022-10-20T22:04:01.164Z,4.30
2022-10-20T22:06:28.604Z,4.22
2022-10-20T22:08:58.158Z,4.05
2022-10-20T22:11:31.823Z,4.05
2022-10-20T22:13:59.681Z,4.05
2022-10-20T22:16:30.116Z,4.45
2022-10-20T22:18:58.978Z,4.85
2022-10-20T22:21:27.788Z,4.00
2022-10-20T22:23:58.799Z,4.50
2022-10-20T22:26:27.967Z,3.70
2022-10-20T22:28:56.377Z,4.30
2022-10-20T22:31:24.667Z,4.22
2022-10-20T22:33:53.407Z,3.88
2022-10-20T22:36:21.246Z,3.90
2022-10-20T22:38:48.599Z,4.07
2022-10-20T22:41:16.220Z,4.13
2022-10-20T22:43:43.578Z,4.20
2022-10-20T22:46:11.149Z,3.40
2022-10-20T22:48:38.658Z,3.65
2022-10-20T22:51:08.548Z,3.70
2022-10-20T22:53:37.018Z,3.28
2022-10-20T22:56:17.895Z,3.60
2022-10-20T22:58:45.497Z,3.17
2022-10-20T23:01:18.842Z,3.67
2022-10-20T23:03:47.037Z,3.20
2022-10-20T23:06:17.596Z,3.70
2022-10-20T23:08:47.161Z,2.95
2022-10-20T23:13:57.066Z,3.00
2022-10-20T23:16:27.392Z,2.90
2022-10-20T23:18:54.854Z,2.58
2022-10-20T23:21:22.187Z,2.90
2022-10-20T23:23:49.566Z,2.40
2022-10-20T23:26:16.877Z,2.28
2022-10-20T23:28:44.309Z,2.03
2022-10-20T23:31:14.957Z,2.50
2022-10-20T23:33:43.856Z,2.30
2022-10-20T23:36:12.210Z,2.78
2022-10-20T23:38:39.798Z,2.17
2022-10-20T23:41:07.576Z,2.13
2022-10-20T23:46:08.232Z,2.92
2022-10-20T23:48:36.307Z,2.22
2022-10-20T23:51:04.108Z,2.13
2022-10-20T23:53:31.483Z,2.80
2022-10-20T23:55:58.905Z,1.85
2022-10-20T23:58:26.787Z,2.10
